KDYS/DYS METAR and TAF weather

Enter ICAO airport designator
Station Type Date Time Source
KDYS METAR 2022/01/26 19:56 UTC NOAA

KDYS 261956Z AUTO 00000KT 10SM OVC033 00/M13 A3026 RMK AO2 SLP265 T00041130 $


Station Type Date Time Source
KDYS Decoded METAR 2022/01/26 19:56 UTC NOAA

Abilene, Dyess Air Force Base, TX, United States (KDYS) 32-25-12N 099-51-25W
Jan 26, 2022 - 02:56 PM EST / 2022.01.26 1956 UTC
Wind: Calm:0
Visibility: 10 mile(s):0
Sky conditions: overcast
Temperature: 32.7 F (0.4 C)
Dew Point: 8.6 F (-13.0 C)
Relative Humidity: 35%
Pressure (altimeter): 30.26 in. Hg (1024 hPa)
ob: KDYS 261956Z AUTO 00000KT 10SM OVC033 00/M13 A3026 RMK AO2 SLP265 T00041130
cycle: 20

Station Type Date Time Source
KDYS TAF 2022/01/26 14:06 UTC NOAA

TAF KDYS 261401Z 2614/2719 VRB06KT 9999 OVC015 QNH3034INS
TEMPO 2614/2616 OVC020
BECMG 2615/2616 08012KT 9999 OVC030 650407 QNH3020INS
BECMG 2622/2623 VRB06KT 9999 OVC030 QNH3018INS
BECMG 2711/2712 VRB06KT 9999 OVC015 QNH3017INS TX08/2622Z TNM02/2614Z

Example: see airport list